createdAt,value
2023-06-03T00:00:33.556Z,98028.56
2023-06-03T00:03:01.473Z,98022.59
2023-06-03T00:05:29.304Z,98023.53
2023-06-03T00:07:58.474Z,98012.38
2023-06-03T00:10:26.258Z,98013.19
2023-06-03T00:12:54.109Z,98019.19
2023-06-03T00:15:21.974Z,98017.44
2023-06-03T00:17:49.801Z,98017.53
2023-06-03T00:20:17.858Z,98012.50
2023-06-03T00:22:46.267Z,97995.56
2023-06-03T00:25:15.709Z,97982.91
2023-06-03T00:27:44.659Z,97959.19
2023-06-03T00:30:13.242Z,97944.13
2023-06-03T00:32:41.107Z,97932.28
2023-06-03T00:35:09.730Z,97900.00
2023-06-03T00:37:37.640Z,97893.41
2023-06-03T00:40:07.489Z,97863.75
2023-06-03T00:42:36.693Z,97830.88
2023-06-03T00:45:04.885Z,97804.81
2023-06-03T00:47:32.993Z,97781.97
2023-06-03T00:50:00.999Z,97760.97
2023-06-03T00:52:29.058Z,97750.03
2023-06-03T00:54:56.950Z,97742.31
2023-06-03T00:57:25.373Z,97737.16
2023-06-03T00:59:54.591Z,97746.75
2023-06-03T01:02:24.952Z,97744.88
2023-06-03T01:04:56.586Z,97741.47
2023-06-03T01:07:32.921Z,97749.91
2023-06-03T01:10:11.927Z,97746.53
2023-06-03T01:12:49.231Z,97739.97
2023-06-03T01:15:21.847Z,97721.28
2023-06-03T01:17:52.307Z,97713.66
2023-06-03T01:20:27.601Z,97718.81
2023-06-03T01:22:59.573Z,97701.00
2023-06-03T01:25:30.165Z,97690.09
2023-06-03T01:27:58.753Z,97677.56
2023-06-03T01:30:26.890Z,97672.41
2023-06-03T01:32:55.660Z,97679.19
2023-06-03T01:35:24.190Z,97686.81
2023-06-03T01:37:53.452Z,97693.59
2023-06-03T01:40:21.911Z,97679.91
2023-06-03T01:42:51.390Z,97675.06
2023-06-03T01:45:19.287Z,97647.19
2023-06-03T01:47:47.739Z,97627.03
2023-06-03T01:50:17.999Z,97600.88
2023-06-03T01:52:46.815Z,97578.97
2023-06-03T01:55:14.814Z,97571.47
2023-06-03T01:57:43.159Z,97567.16
2023-06-03T02:00:13.185Z,97574.63
2023-06-03T02:02:43.986Z,97587.41
2023-06-03T02:05:12.339Z,97584.94
2023-06-03T02:07:40.136Z,97569.00
2023-06-03T02:10:09.828Z,97537.63
2023-06-03T02:12:37.685Z,97525.09
2023-06-03T02:15:16.155Z,97505.66
2023-06-03T02:17:45.022Z,97488.91
2023-06-03T02:20:13.285Z,97476.25
2023-06-03T02:22:41.121Z,97471.91
2023-06-03T02:25:09.928Z,97473.78
2023-06-03T02:27:39.932Z,97471.22
2023-06-03T02:30:13.005Z,97457.84
2023-06-03T02:32:42.269Z,97442.75
2023-06-03T02:35:10.647Z,97418.19
2023-06-03T02:37:38.680Z,97405.66
2023-06-03T02:40:10.394Z,97383.66
2023-06-03T02:42:38.970Z,97381.31
2023-06-03T02:45:08.028Z,97366.91
2023-06-03T02:47:36.399Z,97355.34
2023-06-03T02:50:06.587Z,97330.75
2023-06-03T02:52:35.264Z,97314.84
2023-06-03T02:55:04.814Z,97291.31
2023-06-03T02:57:32.753Z,97266.91
2023-06-03T03:00:00.608Z,97245.16
2023-06-03T03:02:28.579Z,97219.91
2023-06-03T03:04:56.628Z,97199.78
2023-06-03T03:07:28.270Z,97184.59
2023-06-03T03:09:56.428Z,97160.38
2023-06-03T03:12:25.054Z,97142.75
2023-06-03T03:14:53.041Z,97114.13
2023-06-03T03:17:21.017Z,97091.44
2023-06-03T03:19:49.480Z,97084.78
2023-06-03T03:22:17.547Z,97065.38
2023-06-03T03:24:51.829Z,97047.88
2023-06-03T03:27:21.739Z,97021.78
2023-06-03T03:29:53.583Z,96995.88
2023-06-03T03:32:21.827Z,96963.88
2023-06-03T03:35:09.492Z,96953.16
2023-06-03T03:37:37.366Z,96934.59
2023-06-03T03:40:15.220Z,96921.19
2023-06-03T03:42:43.103Z,96915.31
2023-06-03T03:45:18.264Z,96904.47
2023-06-03T03:47:46.707Z,96886.03
2023-06-03T03:50:30.810Z,96863.31
2023-06-03T03:53:02.181Z,96841.47
2023-06-03T03:55:32.313Z,96836.56
2023-06-03T03:58:04.914Z,96836.69
2023-06-03T04:00:34.444Z,96829.09
2023-06-03T04:03:02.459Z,96824.22
2023-06-03T04:05:30.447Z,96810.69
2023-06-03T04:07:58.634Z,96802.28
2023-06-03T04:10:26.449Z,96799.84
2023-06-03T04:12:56.176Z,96795.66
2023-06-03T04:15:31.391Z,96784.78
2023-06-03T04:17:59.863Z,96765.44
2023-06-03T04:20:42.106Z,96756.22
2023-06-03T04:23:16.182Z,96750.41
2023-06-03T04:25:44.759Z,96748.78
2023-06-03T04:28:16.081Z,96758.09
2023-06-03T04:30:45.887Z,96767.28
2023-06-03T04:33:14.122Z,96784.09
2023-06-03T04:35:42.121Z,96795.78
2023-06-03T04:38:10.537Z,96811.72
2023-06-03T04:40:39.107Z,96831.81
2023-06-03T04:43:09.042Z,96857.09
2023-06-03T04:45:39.860Z,96875.53
2023-06-03T04:48:08.739Z,96900.88
2023-06-03T04:50:38.700Z,96915.00
2023-06-03T04:53:09.179Z,96941.09
2023-06-03T04:55:37.163Z,96946.84
2023-06-03T04:58:07.002Z,96969.59
2023-06-03T05:00:35.285Z,96984.66
2023-06-03T05:03:13.911Z,97007.31
2023-06-03T05:05:44.607Z,97025.88
2023-06-03T05:08:14.863Z,97044.31
2023-06-03T05:10:43.491Z,97070.38
2023-06-03T05:13:11.966Z,97086.28
2023-06-03T05:15:41.124Z,97120.75
2023-06-03T05:18:09.153Z,97148.56
2023-06-03T05:20:38.714Z,97177.91
2023-06-03T05:23:06.725Z,97211.75
2023-06-03T05:25:35.563Z,97227.56
2023-06-03T05:28:05.218Z,97249.44
2023-06-03T05:30:36.820Z,97269.66
2023-06-03T05:33:06.210Z,97288.94
2023-06-03T05:35:35.651Z,97322.66
2023-06-03T05:38:04.906Z,97354.69
2023-06-03T05:40:32.817Z,97378.19
2023-06-03T05:43:00.813Z,97411.09
2023-06-03T05:45:29.631Z,97428.63
2023-06-03T05:47:57.552Z,97465.03
2023-06-03T05:50:25.453Z,97483.53
2023-06-03T05:52:56.342Z,97512.94
2023-06-03T05:55:26.039Z,97540.81
2023-06-03T05:57:54.247Z,97570.22
2023-06-03T06:00:22.196Z,97601.25
2023-06-03T06:02:54.944Z,97636.03
2023-06-03T06:05:23.753Z,97663.81
2023-06-03T06:07:51.565Z,97686.56
2023-06-03T06:10:19.763Z,97710.13
2023-06-03T06:12:49.495Z,97744.81
2023-06-03T06:15:17.702Z,97768.41
2023-06-03T06:17:46.332Z,97802.19
2023-06-03T06:20:15.994Z,97834.34
2023-06-03T06:22:44.368Z,97877.38
2023-06-03T06:25:12.378Z,97912.84
2023-06-03T06:27:41.419Z,97950.06
2023-06-03T06:30:11.619Z,97983.75
2023-06-03T06:32:49.368Z,98014.16
2023-06-03T06:35:19.332Z,98047.97
2023-06-03T06:37:50.062Z,98078.41
2023-06-03T06:40:21.057Z,98102.84
2023-06-03T06:42:49.613Z,98130.72
2023-06-03T06:45:33.586Z,98169.63
2023-06-03T06:48:06.845Z,98196.66
2023-06-03T06:50:48.049Z,98231.34
2023-06-03T06:53:19.377Z,98257.56
2023-06-03T06:55:51.578Z,98295.66
2023-06-03T06:58:27.370Z,98329.53
2023-06-03T07:00:58.826Z,98360.03
2023-06-03T07:03:26.774Z,98397.19
2023-06-03T07:05:55.223Z,98431.13
2023-06-03T07:08:26.778Z,98468.47
2023-06-03T07:10:58.323Z,98501.44
2023-06-03T07:13:27.722Z,98531.13
2023-06-03T07:15:57.945Z,98555.63
2023-06-03T07:18:28.754Z,98588.72
2023-06-03T07:20:58.213Z,98619.25
2023-06-03T07:23:28.293Z,98648.94
2023-06-03T07:25:57.727Z,98669.22
2023-06-03T07:28:31.693Z,98706.59
2023-06-03T07:31:08.655Z,98749.78
2023-06-03T07:33:42.435Z,98789.75
2023-06-03T07:36:10.701Z,98837.25
2023-06-03T07:38:58.473Z,98888.25
2023-06-03T07:41:39.971Z,98936.56
2023-06-03T07:44:13.564Z,99002.00
2023-06-03T07:46:44.685Z,99065.69
2023-06-03T07:49:14.075Z,99152.41
2023-06-03T07:51:43.490Z,99228.91
2023-06-03T07:54:12.263Z,99316.56
2023-06-03T07:56:40.235Z,99395.75
2023-06-03T07:59:11.066Z,99471.50
2023-06-03T08:01:39.055Z,99537.19
2023-06-03T08:04:25.808Z,99599.38
2023-06-03T08:06:54.247Z,99659.84
2023-06-03T08:09:27.431Z,99709.28
2023-06-03T08:11:55.531Z,99762.25
2023-06-03T08:14:24.461Z,99812.69
2023-06-03T08:16:53.472Z,99863.75
2023-06-03T08:19:22.712Z,99920.97
2023-06-03T08:21:52.077Z,99977.50
2023-06-03T08:24:20.037Z,100023.56
2023-06-03T08:26:47.823Z,100078.22
2023-06-03T08:29:15.775Z,100138.13
2023-06-03T08:31:43.669Z,100187.69
2023-06-03T08:34:11.616Z,100227.03
2023-06-03T08:36:41.205Z,100258.69
2023-06-03T08:39:09.204Z,100305.78
2023-06-03T08:41:39.951Z,100349.38
2023-06-03T08:44:15.708Z,100399.03
2023-06-03T08:46:49.266Z,100477.13
2023-06-03T08:49:24.830Z,100536.94
2023-06-03T08:51:57.099Z,100596.16
2023-06-03T08:54:30.934Z,100658.72
2023-06-03T08:57:04.380Z,100707.63
2023-06-03T08:59:34.401Z,100716.94
2023-06-03T09:02:06.602Z,100754.81
2023-06-03T09:04:35.167Z,100801.91
2023-06-03T09:07:06.177Z,100851.69
2023-06-03T09:09:35.378Z,100896.41
2023-06-03T09:12:05.958Z,100928.94
2023-06-03T09:14:34.525Z,100939.38
2023-06-03T09:17:02.906Z,100963.31
2023-06-03T09:19:32.478Z,100983.00
2023-06-03T09:22:00.549Z,101033.75
2023-06-03T09:24:29.922Z,101092.19
2023-06-03T09:26:57.801Z,101144.66
2023-06-03T09:29:25.888Z,101192.78
2023-06-03T09:31:54.540Z,101247.81
2023-06-03T09:34:23.292Z,101295.16
2023-06-03T09:36:51.540Z,101331.28
2023-06-03T09:39:35.530Z,101371.66
2023-06-03T09:42:03.501Z,101401.91
2023-06-03T09:44:42.960Z,101422.44
2023-06-03T09:47:12.525Z,101458.59
2023-06-03T09:52:13.336Z,101519.75
2023-06-03T09:54:42.692Z,101514.59
2023-06-03T09:57:13.097Z,101526.63
2023-06-03T09:59:43.562Z,101512.72
2023-06-03T10:02:15.575Z,101528.22
2023-06-03T10:04:45.549Z,101529.81
2023-06-03T10:07:15.266Z,101556.63
2023-06-03T10:09:46.691Z,101585.88
2023-06-03T10:12:15.516Z,101606.53
2023-06-03T10:14:46.924Z,101642.72
2023-06-03T10:17:17.435Z,101674.53
2023-06-03T10:19:46.843Z,101691.81
2023-06-03T10:22:19.340Z,101699.56
2023-06-03T10:24:50.550Z,101732.28
2023-06-03T10:27:20.106Z,101787.44
2023-06-03T10:29:48.572Z,101842.69
2023-06-03T10:32:17.382Z,101858.19
2023-06-03T10:34:48.840Z,101877.25
2023-06-03T10:37:16.984Z,101904.88
2023-06-03T10:39:45.398Z,101920.28
2023-06-03T10:42:15.138Z,101949.59
2023-06-03T10:44:43.288Z,101985.97
2023-06-03T10:47:17.746Z,102017.84
2023-06-03T10:49:49.567Z,102040.25
2023-06-03T10:52:34.586Z,102043.78
2023-06-03T10:55:12.968Z,102028.97
2023-06-03T10:57:47.225Z,102043.56
2023-06-03T11:00:53.932Z,102096.31
2023-06-03T11:03:22.313Z,102146.47
2023-06-03T11:05:50.712Z,102176.69
2023-06-03T11:08:51.818Z,102132.53
2023-06-03T11:12:00.036Z,102157.66
2023-06-03T11:15:00.018Z,102173.03
2023-06-03T11:17:28.831Z,102161.84
2023-06-03T11:19:59.150Z,102176.47
2023-06-03T11:22:41.851Z,102204.13
2023-06-03T11:25:10.894Z,102255.13
2023-06-03T11:27:38.880Z,102294.88
2023-06-03T11:30:08.782Z,102350.31
2023-06-03T11:32:38.486Z,102372.69
2023-06-03T11:35:29.068Z,102409.97
2023-06-03T11:37:57.367Z,102410.75
2023-06-03T11:40:25.728Z,102390.63
2023-06-03T11:43:10.085Z,102407.22
2023-06-03T11:45:39.798Z,102419.28
2023-06-03T11:48:10.438Z,102456.50
2023-06-03T11:50:50.131Z,102457.34
2023-06-03T11:53:34.486Z,102457.34
2023-06-03T11:56:04.059Z,102444.28
2023-06-03T11:58:32.399Z,102416.50
2023-06-03T12:01:09.964Z,102388.72
2023-06-03T12:03:38.284Z,102393.84
2023-06-03T12:06:06.735Z,102392.09
2023-06-03T12:08:46.893Z,102398.09
2023-06-03T12:11:27.255Z,102467.38
2023-06-03T12:13:55.179Z,102560.97
2023-06-03T12:16:32.355Z,102628.50
2023-06-03T12:19:01.546Z,102636.34
2023-06-03T12:21:29.640Z,102488.91
2023-06-03T12:23:58.828Z,102445.53
2023-06-03T12:26:27.384Z,102426.38
2023-06-03T12:29:06.815Z,102484.41
2023-06-03T12:31:36.666Z,102512.91
2023-06-03T12:34:05.841Z,102482.56
2023-06-03T12:36:50.870Z,102476.44
2023-06-03T12:39:20.848Z,102512.84
2023-06-03T12:41:53.298Z,102555.19
2023-06-03T12:44:21.444Z,102622.88
2023-06-03T12:47:02.973Z,102704.34
2023-06-03T12:49:32.224Z,102763.41
2023-06-03T12:52:20.288Z,102790.25
2023-06-03T12:54:51.940Z,102826.69
2023-06-03T12:57:21.395Z,102894.41
2023-06-03T13:00:12.663Z,102978.56
2023-06-03T13:02:43.565Z,103061.09
2023-06-03T13:05:12.944Z,103064.50
2023-06-03T13:07:42.295Z,103056.69
2023-06-03T13:10:11.275Z,103060.09
2023-06-03T13:12:40.362Z,103022.69
2023-06-03T13:15:09.263Z,103073.94
2023-06-03T13:17:37.603Z,103125.97
2023-06-03T13:20:09.520Z,103208.72
2023-06-03T13:22:38.157Z,103240.88
2023-06-03T13:25:06.739Z,103279.94
2023-06-03T13:27:35.611Z,103260.78
2023-06-03T13:30:03.674Z,103254.63
2023-06-03T13:32:31.568Z,103283.34
2023-06-03T13:35:00.367Z,103286.69
2023-06-03T13:37:29.602Z,103358.13
2023-06-03T13:39:57.662Z,103422.50
2023-06-03T13:42:25.635Z,103404.13
2023-06-03T13:44:53.483Z,103384.13
2023-06-03T13:47:21.524Z,103362.28
2023-06-03T13:49:49.370Z,103409.28
2023-06-03T13:52:17.241Z,103451.00
2023-06-03T13:54:46.413Z,103457.09
2023-06-03T13:57:14.335Z,103374.28
2023-06-03T13:59:42.137Z,103360.22
2023-06-03T14:02:12.781Z,103392.50
2023-06-03T14:04:40.918Z,103440.34
2023-06-03T14:07:09.352Z,103459.47
2023-06-03T14:09:37.551Z,103473.25
2023-06-03T14:12:08.171Z,103482.84
2023-06-03T14:14:35.980Z,103535.09
2023-06-03T14:17:03.867Z,103600.44
2023-06-03T14:19:34.941Z,103616.97
2023-06-03T14:22:02.886Z,103665.81
2023-06-03T14:24:30.699Z,103728.53
2023-06-03T14:26:58.651Z,103740.72
2023-06-03T14:29:27.897Z,103782.56
2023-06-03T14:31:55.968Z,103867.19
2023-06-03T14:34:23.846Z,103917.88
2023-06-03T14:36:51.687Z,103900.38
2023-06-03T14:39:19.541Z,103867.06
2023-06-03T14:41:47.438Z,103859.22
2023-06-03T14:44:17.277Z,103821.50
2023-06-03T14:46:46.490Z,103793.56
2023-06-03T14:49:14.408Z,103831.94
2023-06-03T14:51:42.290Z,103887.81
2023-06-03T14:54:10.201Z,103934.81
2023-06-03T14:56:38.060Z,103929.50
2023-06-03T14:59:05.995Z,103980.16
2023-06-03T15:01:34.138Z,104005.53
2023-06-03T15:04:03.909Z,104028.97
2023-06-03T15:06:31.759Z,104000.16
2023-06-03T15:08:59.598Z,103939.84
2023-06-03T15:11:27.947Z,103880.38
2023-06-03T15:13:55.842Z,103883.78
2023-06-03T15:16:23.848Z,103861.88
2023-06-03T15:18:51.744Z,103881.84
2023-06-03T15:21:20.979Z,103922.84
2023-06-03T15:23:48.862Z,103979.59
2023-06-03T15:26:16.804Z,104012.84
2023-06-03T15:28:44.717Z,104038.91
2023-06-03T15:31:12.635Z,103850.16
2023-06-03T15:33:40.516Z,103729.56
2023-06-03T15:36:08.885Z,103683.31
2023-06-03T15:38:38.207Z,103739.97
2023-06-03T15:41:06.314Z,103771.28
2023-06-03T15:43:34.143Z,103828.91
2023-06-03T15:46:01.987Z,103827.06
2023-06-03T15:48:30.041Z,103820.09
2023-06-03T15:50:58.538Z,103769.44
2023-06-03T15:53:27.526Z,103784.19
2023-06-03T15:55:57.329Z,103772.78
2023-06-03T15:58:25.193Z,103779.59
2023-06-03T16:00:53.089Z,103783.13
2023-06-03T16:03:21.051Z,103777.03
2023-06-03T16:05:49.112Z,103765.66
2023-06-03T16:08:17.026Z,103732.38
2023-06-03T16:10:45.045Z,103677.31
2023-06-03T16:13:14.364Z,103664.16
2023-06-03T16:15:42.233Z,103696.38
2023-06-03T16:18:10.124Z,103727.78
2023-06-03T16:20:38.192Z,103712.84
2023-06-03T16:23:06.669Z,103684.94
2023-06-03T16:25:34.540Z,103653.41
2023-06-03T16:28:02.394Z,103625.47
2023-06-03T16:30:31.584Z,103580.03
2023-06-03T16:32:59.508Z,103512.06
2023-06-03T16:35:27.352Z,103441.38
2023-06-03T16:37:55.157Z,103381.19
2023-06-03T16:40:23.114Z,103330.56
2023-06-03T16:42:50.937Z,103266.03
2023-06-03T16:45:18.837Z,103220.00
2023-06-03T16:47:48.299Z,103094.53
2023-06-03T16:50:16.700Z,103014.56
2023-06-03T16:52:44.499Z,102950.09
2023-06-03T16:55:12.396Z,102850.97
2023-06-03T16:57:40.532Z,102745.00
2023-06-03T17:00:09.843Z,102642.53
2023-06-03T17:02:37.702Z,102560.94
2023-06-03T17:05:07.891Z,102489.84
2023-06-03T17:07:35.821Z,102415.22
2023-06-03T17:10:03.730Z,102363.19
2023-06-03T17:12:31.826Z,102285.19
2023-06-03T17:14:59.720Z,102198.56
2023-06-03T17:17:28.009Z,102114.53
2023-06-03T17:19:55.918Z,102028.16
2023-06-03T17:22:25.170Z,101934.78
2023-06-03T17:24:53.009Z,101861.28
2023-06-03T17:27:20.817Z,101798.97
2023-06-03T17:29:48.633Z,101732.47
2023-06-03T17:32:16.481Z,101667.72
2023-06-03T17:34:44.403Z,101595.28
2023-06-03T17:37:12.334Z,101521.16
2023-06-03T17:39:41.523Z,101467.63
2023-06-03T17:42:09.631Z,101404.72
2023-06-03T17:44:37.423Z,101332.19
2023-06-03T17:47:05.772Z,101278.78
2023-06-03T17:49:33.810Z,101224.63
2023-06-03T17:52:01.822Z,101153.06
2023-06-03T17:54:29.708Z,101109.19
2023-06-03T17:56:58.897Z,101084.28
2023-06-03T17:59:26.800Z,101047.28
2023-06-03T18:01:54.781Z,101018.09
2023-06-03T18:04:22.769Z,100986.31
2023-06-03T18:06:50.740Z,100945.81
2023-06-03T18:09:18.594Z,100916.75
2023-06-03T18:11:46.445Z,100866.69
2023-06-03T18:14:15.869Z,100845.41
2023-06-03T18:16:43.772Z,100804.91
2023-06-03T18:19:11.852Z,100776.59
2023-06-03T18:21:43.275Z,100740.53
2023-06-03T18:24:11.146Z,100701.88
2023-06-03T18:26:38.991Z,100659.75
2023-06-03T18:29:08.755Z,100629.78
2023-06-03T18:31:41.325Z,100597.31
2023-06-03T18:34:09.330Z,100562.88
2023-06-03T18:36:37.110Z,100520.03
2023-06-03T18:39:05.118Z,100494.28
2023-06-03T18:41:33.029Z,100461.59
2023-06-03T18:44:00.870Z,100432.50
2023-06-03T18:46:28.907Z,100401.66
2023-06-03T18:48:58.187Z,100383.75
2023-06-03T18:51:26.055Z,100360.56
2023-06-03T18:53:54.009Z,100346.84
2023-06-03T18:56:21.832Z,100327.16
2023-06-03T18:58:50.523Z,100304.06
2023-06-03T19:01:18.621Z,100261.19
2023-06-03T19:03:46.774Z,100234.75
2023-06-03T19:06:16.365Z,100197.03
2023-06-03T19:08:44.191Z,100157.66
2023-06-03T19:11:11.994Z,100117.41
2023-06-03T19:13:39.851Z,100091.78
2023-06-03T19:16:08.068Z,100055.78
2023-06-03T19:18:36.508Z,100038.84
2023-06-03T19:21:05.017Z,99995.13
2023-06-03T19:23:34.597Z,99953.38
2023-06-03T19:26:02.458Z,99919.38
2023-06-03T19:28:30.244Z,99868.03
2023-06-03T19:30:58.142Z,99815.88
2023-06-03T19:33:26.060Z,99791.09
2023-06-03T19:35:53.911Z,99764.69
2023-06-03T19:38:21.759Z,99736.56
2023-06-03T19:40:50.980Z,99700.69
2023-06-03T19:43:18.770Z,99647.75
2023-06-03T19:45:46.625Z,99608.50
2023-06-03T19:48:14.517Z,99580.38
2023-06-03T19:50:42.400Z,99555.69
2023-06-03T19:53:10.252Z,99526.63
2023-06-03T19:55:38.148Z,99501.13
2023-06-03T19:58:07.332Z,99476.47
2023-06-03T20:00:35.408Z,99449.31
2023-06-03T20:03:03.973Z,99426.31
2023-06-03T20:05:31.964Z,99387.00
2023-06-03T20:07:59.818Z,99363.28
2023-06-03T20:10:27.650Z,99338.66
2023-06-03T20:12:55.540Z,99312.19
2023-06-03T20:15:24.702Z,99264.38
2023-06-03T20:17:52.800Z,99238.19
2023-06-03T20:20:21.035Z,99201.50
2023-06-03T20:22:48.930Z,99175.09
2023-06-03T20:25:16.881Z,99137.63
2023-06-03T20:27:44.813Z,99122.44
2023-06-03T20:30:12.994Z,99107.19
2023-06-03T20:32:42.309Z,99080.94
2023-06-03T20:35:10.474Z,99048.53
2023-06-03T20:37:38.278Z,99012.94
2023-06-03T20:40:07.904Z,98964.44
2023-06-03T20:42:35.754Z,98924.63
2023-06-03T20:45:05.337Z,98893.22
2023-06-03T20:47:33.243Z,98868.47
2023-06-03T20:50:02.515Z,98863.53
2023-06-03T20:52:30.420Z,98861.00
2023-06-03T20:54:58.286Z,98861.00
2023-06-03T20:57:26.947Z,98852.50
2023-06-03T20:59:54.771Z,98823.59
2023-06-03T21:02:22.664Z,98799.84
2023-06-03T21:04:50.776Z,98782.97
2023-06-03T21:07:20.055Z,98768.56
2023-06-03T21:09:47.879Z,98756.66
2023-06-03T21:12:15.951Z,98754.97
2023-06-03T21:14:43.786Z,98754.13
2023-06-03T21:17:11.585Z,98752.47
2023-06-03T21:19:39.435Z,98737.28
2023-06-03T21:22:07.792Z,98712.59
2023-06-03T21:24:36.992Z,98711.06
2023-06-03T21:27:05.004Z,98696.66
2023-06-03T21:29:32.791Z,98660.09
2023-06-03T21:32:00.657Z,98635.53
2023-06-03T21:34:28.998Z,98613.47
2023-06-03T21:36:57.423Z,98594.00
2023-06-03T21:39:25.315Z,98560.16
2023-06-03T21:41:54.507Z,98519.59
2023-06-03T21:44:22.421Z,98470.47
2023-06-03T21:46:50.349Z,98432.47
2023-06-03T21:49:18.310Z,98401.00
2023-06-03T21:51:46.101Z,98374.03
2023-06-03T21:54:14.060Z,98352.13
2023-06-03T21:56:41.897Z,98318.91
2023-06-03T21:59:11.137Z,98289.50
2023-06-03T22:01:39.052Z,98248.88
2023-06-03T22:06:36.279Z,98165.09
2023-06-03T22:09:04.976Z,98127.09
2023-06-03T22:11:32.774Z,98097.47
2023-06-03T22:14:00.838Z,98073.00
2023-06-03T22:16:28.844Z,98050.31
2023-06-03T22:18:56.862Z,98028.31
2023-06-03T22:21:24.678Z,98008.09
2023-06-03T22:23:53.938Z,97981.88
2023-06-03T22:26:22.349Z,97964.28
2023-06-03T22:28:50.355Z,97949.94
2023-06-03T22:31:18.408Z,97932.31
2023-06-03T22:33:46.241Z,97917.00
2023-06-03T22:36:14.106Z,97904.44
2023-06-03T22:38:42.600Z,97897.75
2023-06-03T22:41:11.948Z,97876.59
2023-06-03T22:43:39.868Z,97876.59
2023-06-03T22:46:07.850Z,97868.97
2023-06-03T22:48:35.808Z,97867.34
2023-06-03T22:51:06.875Z,97869.91
2023-06-03T22:53:35.243Z,97865.78
2023-06-03T22:56:03.097Z,97849.72
2023-06-03T22:58:32.295Z,97822.81
2023-06-03T23:01:00.129Z,97792.41
2023-06-03T23:03:28.082Z,97746.75
2023-06-03T23:05:55.936Z,97717.19
2023-06-03T23:08:23.740Z,97704.84
2023-06-03T23:10:51.606Z,97677.78
2023-06-03T23:13:19.592Z,97660.19
2023-06-03T23:15:48.824Z,97636.59
2023-06-03T23:18:16.588Z,97615.50
2023-06-03T23:20:44.405Z,97599.53
2023-06-03T23:23:12.256Z,97587.94
2023-06-03T23:25:40.632Z,97572.69
2023-06-03T23:28:08.421Z,97553.34
2023-06-03T23:30:36.934Z,97540.00
2023-06-03T23:33:06.911Z,97525.81
2023-06-03T23:35:35.157Z,97491.81
2023-06-03T23:38:03.285Z,97477.66
2023-06-03T23:40:31.151Z,97462.66
2023-06-03T23:42:59.030Z,97437.38
2023-06-03T23:45:27.318Z,97418.03
2023-06-03T23:47:55.346Z,97396.94
2023-06-03T23:50:24.565Z,97376.72
2023-06-03T23:52:52.382Z,97349.88
2023-06-03T23:55:20.195Z,97344.94
2023-06-03T23:57:48.015Z,97322.22
